Terminal Aerodrome Forecast
Issued by NWS

Home | Current Version | Previous Version | Text Only | Print | Product List | Glossary On
Versions: 1 2 3 4 5 6 7 8 9 10 11 12 13 14
000
FTUS43 KICT 060520
TAFHUT
TAF
KHUT 060520Z 0606/0706 18013KT P6SM SCT100 BKN200
     FM061500 22012KT P6SM BKN060
     FM062100 35012G22KT P6SM VCTS BKN060CB
     FM070000 02012G22KT 5SM -TSRA BR BKN060CB
     FM070300 02012KT 5SM -SHRA VCTS BKN060CB=

USA.gov is the U.S. government's official web portal to all federal, state and local government web resources and services.